O'Brien, Texas
Current Conditions -  °F | °C
As of 12:58 AM on Saturday 29 Nov 2014 (Local Time) from KDYS Reporting Station
Clear Clear  
Wind Chill: 56°   Ceiling: Unl
Heat Index: 56°   Visibility: 10mi
Dew Point: 42°   Wind: 18mph
Humidity: 60%   Direction: 210°SSW
Pressure: 29.95"   Gusts: NA
Location:  33.38°N, 99.84°W
Report Text: KDYS 290658Z AUTO 21016KT 10SM CLR 13/06 A2995 RMK AO2 SLP118 T01340057 $
Loading
Personal Weather Stations






























Interactive Weather Map New forecast layout! Learn more

10-Day Weather Forecast

Advertisements
Track Severe Weather on mobile